LEST/SCQ METAR and TAF weather

Enter ICAO airport designator
Station Type Date Time Source
LEST METAR 2018/12/13 20:00 UTC NOAA

LEST 132000Z VRB01KT 9999 FEW020 SCT045 06/05 Q1020 TEMPO SHRA FEW030TCU


Station Type Date Time Source
LEST Decoded METAR 2018/12/13 20:00 UTC NOAA

Santiago / Labacolla, Spain (LEST) 42-54N 008-26W 367M
Dec 13, 2018 - 03:00 PM EST / 2018.12.13 2000 UTC
Wind: Variable at 1 MPH (1 KT):0
Visibility: greater than 7 mile(s):0
Sky conditions: partly cloudy
Weather: Towering cumulus clouds observed
Temperature: 42 F (6 C)
Dew Point: 41 F (5 C)
Relative Humidity: 93%
Pressure (altimeter): 30.12 in. Hg (1020 hPa)
ob: LEST 132000Z VRB01KT 9999 FEW020 SCT045 06/05 Q1020 TEMPO SHRA FEW030TCU
cycle: 20

Station Type Date Time Source
LEST TAF 2018/12/13 18:27 UTC NOAA

TAF LEST 131700Z 1318/1418 28008KT 9999 FEW010 SCT040 TX10/1414Z TN04/1407Z
TEMPO 1318/1321 RA SHRA SCT020TCU
TEMPO 1320/1410 3000 -RA BR BKN010
TEMPO 1403/1418 22010KT PROB40
TEMPO 1322/1409 0800 BCFG BKN002


Example: see airport list